createdAt,value
2019-05-17T17:38:51.227Z,9.53
2019-05-17T17:41:21.473Z,4.70
2019-05-17T17:43:58.762Z,5.42
2019-05-17T17:46:23.764Z,4.40
2019-05-17T17:48:54.024Z,4.62
2019-05-17T17:51:24.350Z,4.40
2019-05-17T17:53:54.715Z,4.70
2019-05-17T17:56:24.991Z,8.08
2019-05-17T17:58:55.332Z,19.92
2019-05-17T18:01:25.656Z,15.55
2019-05-17T18:03:55.913Z,14.13
2019-05-17T18:06:26.186Z,6.70
2019-05-17T18:08:56.551Z,10.43
2019-05-17T18:11:26.902Z,13.60
2019-05-17T18:14:11.124Z,15.53
2019-05-17T18:16:30.352Z,4.00
2019-05-17T18:19:00.594Z,18.98
2019-05-17T18:21:31.000Z,11.80
2019-05-17T18:24:01.261Z,14.00
2019-05-17T18:26:31.625Z,10.38
2019-05-17T18:29:01.867Z,2.90
2019-05-17T18:31:33.318Z,3.58
2019-05-17T18:34:03.627Z,5.55
2019-05-17T18:36:33.897Z,8.25
2019-05-17T18:39:05.347Z,8.30
2019-05-17T18:41:37.234Z,7.85
2019-05-17T18:44:07.454Z,6.05
2019-05-17T18:46:37.799Z,5.40
2019-05-17T18:49:08.028Z,4.03
2019-05-17T18:51:38.274Z,4.35
2019-05-17T18:54:08.525Z,4.10
2019-05-17T18:56:38.798Z,4.17
2019-05-17T18:59:09.016Z,3.77
2019-05-17T19:01:39.250Z,2.85
2019-05-17T19:04:09.510Z,3.52
2019-05-17T19:06:39.733Z,3.20
2019-05-17T19:09:10.958Z,3.90
2019-05-17T19:11:41.182Z,3.20
2019-05-17T19:14:11.430Z,3.10
2019-05-17T19:16:41.673Z,3.25
2019-05-17T19:19:11.933Z,2.98
2019-05-17T19:21:42.186Z,2.55
2019-05-17T19:24:12.433Z,2.33
2019-05-17T19:26:42.668Z,2.62
2019-05-17T19:29:12.920Z,2.35
2019-05-17T19:31:43.167Z,2.47
2019-05-17T19:34:13.426Z,2.70
2019-05-17T19:36:43.644Z,2.47
2019-05-17T19:39:13.901Z,2.47
2019-05-17T19:41:44.197Z,2.25
2019-05-17T19:44:14.452Z,2.10
2019-05-17T19:46:44.696Z,2.27
2019-05-17T19:49:14.955Z,1.85
2019-05-17T19:51:45.925Z,2.40
2019-05-17T19:54:16.179Z,2.98
2019-05-17T19:56:46.419Z,2.80
2019-05-17T19:59:16.667Z,2.92
2019-05-17T20:01:46.901Z,2.98
2019-05-17T20:04:18.252Z,2.95
2019-05-17T20:06:48.483Z,3.98
2019-05-17T20:09:18.739Z,11.15
2019-05-17T20:11:48.997Z,22.60
2019-05-17T20:14:19.487Z,37.17
2019-05-17T20:16:49.717Z,48.63
2019-05-17T20:19:20.063Z,50.43
2019-05-17T20:21:50.316Z,48.70
2019-05-17T20:24:20.577Z,48.65
2019-05-17T20:26:51.789Z,43.68
2019-05-17T20:29:23.119Z,37.85
2019-05-17T20:31:53.372Z,36.17
2019-05-17T20:34:23.649Z,32.23
2019-05-17T20:36:53.891Z,30.52
2019-05-17T20:39:24.183Z,28.10
2019-05-17T20:41:57.340Z,24.72
2019-05-17T20:44:26.396Z,22.32
2019-05-17T20:46:56.649Z,20.57
2019-05-17T20:49:26.940Z,21.55
2019-05-17T20:51:57.254Z,31.95
2019-05-17T20:54:27.514Z,34.10
2019-05-17T20:56:57.844Z,46.53
2019-05-17T20:59:28.091Z,49.85
2019-05-17T21:01:58.354Z,53.52
2019-05-17T21:04:28.592Z,57.00
2019-05-17T21:06:58.862Z,47.15
2019-05-17T21:09:29.118Z,40.10
2019-05-17T21:11:59.367Z,40.08
2019-05-17T21:14:29.610Z,35.98
2019-05-17T21:16:59.872Z,28.35
2019-05-17T21:19:30.137Z,24.67
2019-05-17T21:22:00.392Z,21.95
2019-05-17T21:24:30.648Z,23.12
2019-05-17T21:27:00.923Z,17.90
2019-05-17T21:29:31.159Z,16.35
2019-05-17T21:32:01.458Z,15.85
2019-05-17T21:34:32.755Z,14.15
2019-05-17T21:37:03.026Z,12.47
2019-05-17T21:39:33.267Z,12.03
2019-05-17T21:42:03.525Z,11.25
2019-05-17T21:44:33.772Z,9.58
2019-05-17T21:47:05.239Z,9.83
2019-05-17T21:49:35.513Z,7.72
2019-05-17T21:52:05.944Z,6.90
2019-05-17T21:54:36.149Z,5.58
2019-05-17T21:57:06.405Z,5.17
2019-05-17T21:59:36.633Z,5.17
2019-05-17T22:02:07.354Z,5.58
2019-05-17T22:04:37.580Z,4.87
2019-05-17T22:07:07.823Z,4.28
2019-05-17T22:09:38.057Z,5.30
2019-05-17T22:12:12.743Z,4.65
2019-05-17T22:14:42.945Z,3.87
2019-05-17T22:17:13.185Z,4.03
2019-05-17T22:19:43.420Z,4.05
2019-05-17T22:22:13.663Z,3.33
2019-05-17T22:24:43.904Z,3.60
2019-05-17T22:27:14.151Z,3.60
2019-05-17T22:29:44.392Z,3.12
2019-05-17T22:32:14.658Z,2.60
2019-05-17T22:34:46.058Z,3.12
2019-05-17T22:37:17.680Z,2.50
2019-05-17T22:39:48.020Z,2.80
2019-05-17T22:42:19.339Z,2.55
2019-05-17T22:44:49.561Z,2.85
2019-05-17T22:47:19.801Z,2.47
2019-05-17T22:49:50.023Z,2.27
2019-05-17T22:52:20.271Z,2.27
2019-05-17T22:54:50.510Z,2.10
2019-05-17T22:57:20.763Z,2.20
2019-05-17T22:59:50.996Z,2.30
2019-05-17T23:02:21.263Z,2.10
2019-05-17T23:04:51.489Z,2.20
2019-05-17T23:07:21.756Z,2.10
2019-05-17T23:09:51.981Z,2.17
2019-05-17T23:12:22.252Z,2.40
2019-05-17T23:14:52.480Z,1.90
2019-05-17T23:17:22.746Z,2.10
2019-05-17T23:19:52.972Z,1.75
2019-05-17T23:22:23.230Z,2.12
2019-05-17T23:24:53.522Z,2.22
2019-05-17T23:27:23.782Z,2.08
2019-05-17T23:29:54.008Z,2.05
2019-05-17T23:32:25.249Z,1.80
2019-05-17T23:34:55.470Z,1.92
2019-05-17T23:37:25.738Z,1.90
2019-05-17T23:39:55.976Z,1.65
2019-05-17T23:42:26.230Z,1.95
2019-05-17T23:44:56.466Z,2.10
2019-05-17T23:47:26.730Z,2.00
2019-05-17T23:49:56.974Z,1.70
2019-05-17T23:52:28.068Z,1.77
2019-05-17T23:54:58.298Z,1.70
2019-05-17T23:57:28.567Z,1.72
2019-05-17T23:59:58.804Z,1.52
